createdAt,value
2023-05-21T00:01:16.498Z,24.35
2023-05-21T00:03:46.443Z,18.58
2023-05-21T00:06:15.494Z,18.23
2023-05-21T00:08:43.207Z,19.35
2023-05-21T00:11:10.636Z,19.02
2023-05-21T00:13:38.621Z,16.83
2023-05-21T00:16:06.441Z,19.55
2023-05-21T00:18:34.409Z,16.75
2023-05-21T00:21:02.210Z,19.30
2023-05-21T00:23:32.652Z,17.75
2023-05-21T00:26:00.216Z,19.17
2023-05-21T00:28:27.763Z,15.32
2023-05-21T00:30:55.228Z,15.10
2023-05-21T00:33:26.346Z,17.20
2023-05-21T00:35:53.821Z,15.15
2023-05-21T00:38:22.148Z,15.65
2023-05-21T00:40:50.472Z,15.23
2023-05-21T00:43:18.024Z,16.58
2023-05-21T00:45:47.673Z,15.10
2023-05-21T00:48:15.996Z,16.23
2023-05-21T00:50:44.914Z,19.13
2023-05-21T00:53:15.410Z,15.68
2023-05-21T00:55:43.029Z,18.83
2023-05-21T00:58:10.732Z,15.65
2023-05-21T01:00:40.570Z,18.60
2023-05-21T01:03:08.443Z,21.63
2023-05-21T01:05:36.787Z,21.85
2023-05-21T01:08:05.014Z,22.70
2023-05-21T01:10:32.589Z,20.85
2023-05-21T01:13:00.724Z,18.77
2023-05-21T01:15:28.649Z,18.40
2023-05-21T01:17:57.259Z,22.15
2023-05-21T01:20:25.201Z,20.38
2023-05-21T01:22:54.439Z,23.05
2023-05-21T01:25:23.318Z,20.08
2023-05-21T01:27:54.010Z,25.73
2023-05-21T01:30:23.379Z,19.88
2023-05-21T01:33:01.356Z,23.08
2023-05-21T01:35:39.023Z,22.80
2023-05-21T01:38:22.362Z,24.25
2023-05-21T01:41:03.899Z,22.83
2023-05-21T01:43:38.783Z,21.63
2023-05-21T01:46:09.902Z,26.33
2023-05-21T01:48:38.699Z,23.20
2023-05-21T01:51:06.886Z,25.75
2023-05-21T01:53:34.389Z,27.17
2023-05-21T01:56:02.864Z,27.88
2023-05-21T01:58:30.593Z,27.90
2023-05-21T02:00:58.083Z,28.83
2023-05-21T02:03:28.106Z,31.92
2023-05-21T02:05:56.116Z,31.35
2023-05-21T02:08:23.800Z,34.92
2023-05-21T02:10:51.596Z,32.17
2023-05-21T02:13:25.015Z,30.92
2023-05-21T02:15:54.773Z,37.17
2023-05-21T02:18:23.158Z,33.63
2023-05-21T02:20:50.818Z,35.83
2023-05-21T02:23:18.295Z,39.20
2023-05-21T02:25:45.879Z,32.28
2023-05-21T02:28:13.281Z,34.42
2023-05-21T02:30:40.862Z,31.85
2023-05-21T02:33:09.203Z,36.75
2023-05-21T02:35:37.024Z,38.00
2023-05-21T02:38:04.607Z,33.65
2023-05-21T02:40:33.223Z,31.83
2023-05-21T02:43:00.910Z,30.75
2023-05-21T02:45:30.192Z,32.13
2023-05-21T02:47:57.772Z,32.55
2023-05-21T02:50:25.381Z,29.52
2023-05-21T02:52:59.795Z,34.88
2023-05-21T02:55:27.795Z,30.55
2023-05-21T02:57:55.401Z,30.13
2023-05-21T03:00:22.981Z,29.90
2023-05-21T03:02:50.645Z,33.28
2023-05-21T03:05:18.248Z,33.80
2023-05-21T03:07:45.925Z,25.23
2023-05-21T03:10:13.355Z,27.55
2023-05-21T03:12:41.350Z,28.35
2023-05-21T03:15:09.524Z,31.30
2023-05-21T03:17:36.975Z,27.70
2023-05-21T03:20:05.389Z,26.67
2023-05-21T03:22:33.131Z,24.23
2023-05-21T03:25:04.350Z,27.17
2023-05-21T03:27:32.113Z,30.38
2023-05-21T03:30:04.321Z,27.63
2023-05-21T03:32:38.039Z,28.98
2023-05-21T03:35:06.673Z,27.80
2023-05-21T03:37:34.390Z,30.08
2023-05-21T03:40:01.867Z,28.48
2023-05-21T03:42:30.677Z,28.33
2023-05-21T03:44:58.162Z,32.28
2023-05-21T03:47:45.515Z,23.65
2023-05-21T03:50:12.993Z,27.92
2023-05-21T03:52:40.743Z,22.95
2023-05-21T03:55:08.748Z,24.60
2023-05-21T03:57:37.438Z,27.30
2023-05-21T04:00:08.332Z,24.92
2023-05-21T04:02:43.292Z,24.55
2023-05-21T04:05:12.636Z,25.30
2023-05-21T04:07:40.622Z,21.23
2023-05-21T04:10:08.727Z,23.50
2023-05-21T04:12:36.157Z,24.00
2023-05-21T04:15:05.707Z,23.25
2023-05-21T04:17:34.589Z,24.73
2023-05-21T04:20:03.951Z,25.70
2023-05-21T04:22:31.691Z,22.13
2023-05-21T04:24:59.685Z,22.67
2023-05-21T04:27:30.890Z,25.20
2023-05-21T04:29:58.828Z,25.42
2023-05-21T04:32:28.552Z,23.48
2023-05-21T04:34:56.113Z,23.63
2023-05-21T04:37:27.953Z,23.27
2023-05-21T04:40:01.576Z,22.17
2023-05-21T04:42:30.037Z,22.23
2023-05-21T04:44:59.563Z,24.00
2023-05-21T04:47:35.628Z,22.67
2023-05-21T04:50:04.614Z,22.00
2023-05-21T04:52:32.187Z,21.30
2023-05-21T04:54:59.798Z,23.50
2023-05-21T04:57:28.312Z,19.52
2023-05-21T04:59:57.982Z,18.10
2023-05-21T05:02:25.443Z,18.08
2023-05-21T05:04:52.920Z,16.65
2023-05-21T05:07:20.721Z,19.45
2023-05-21T05:09:48.173Z,16.35
2023-05-21T05:12:15.675Z,20.63
2023-05-21T05:14:44.229Z,18.77
2023-05-21T05:17:14.705Z,17.20
2023-05-21T05:19:43.745Z,21.58
2023-05-21T05:22:13.395Z,18.23
2023-05-21T05:24:42.544Z,18.83
2023-05-21T05:27:09.997Z,16.00
2023-05-21T05:29:37.579Z,17.50
2023-05-21T05:32:05.479Z,19.67
2023-05-21T05:34:32.926Z,20.58
2023-05-21T05:37:00.400Z,18.70
2023-05-21T05:39:28.904Z,19.45
2023-05-21T05:41:56.511Z,22.05
2023-05-21T05:44:24.046Z,20.88
2023-05-21T05:46:51.491Z,19.98
2023-05-21T05:49:18.968Z,23.70
2023-05-21T05:51:46.549Z,23.73
2023-05-21T05:54:14.115Z,19.35
2023-05-21T05:56:41.670Z,22.98
2023-05-21T05:59:09.355Z,22.80
2023-05-21T06:01:38.962Z,22.27
2023-05-21T06:04:07.137Z,22.05
2023-05-21T06:06:34.847Z,24.55
2023-05-21T06:09:02.856Z,20.92
2023-05-21T06:11:30.477Z,23.67
2023-05-21T06:14:00.933Z,24.83
2023-05-21T06:16:31.493Z,20.50
2023-05-21T06:18:59.713Z,20.23
2023-05-21T06:21:27.669Z,19.23
2023-05-21T06:23:56.740Z,24.55
2023-05-21T06:26:24.230Z,22.80
2023-05-21T06:28:52.693Z,21.83
2023-05-21T06:31:22.492Z,20.45
2023-05-21T06:33:50.406Z,22.40
2023-05-21T06:36:18.088Z,21.27
2023-05-21T06:38:46.868Z,33.75
2023-05-21T06:41:14.313Z,30.88
2023-05-21T06:43:50.357Z,33.58
2023-05-21T06:46:40.788Z,32.33
2023-05-21T06:49:09.478Z,32.42
2023-05-21T06:51:37.360Z,30.88
2023-05-21T06:54:06.219Z,26.40
2023-05-21T06:56:35.559Z,29.35
2023-05-21T06:59:03.172Z,25.90
2023-05-21T07:01:30.818Z,29.38
2023-05-21T07:03:58.367Z,21.90
2023-05-21T07:06:26.327Z,24.55
2023-05-21T07:08:53.804Z,19.92
2023-05-21T07:11:22.175Z,18.00
2023-05-21T07:13:49.734Z,17.65
2023-05-21T07:16:17.851Z,15.90
2023-05-21T07:18:45.966Z,16.63
2023-05-21T07:21:13.868Z,15.93
2023-05-21T07:23:41.376Z,17.10
2023-05-21T07:26:10.915Z,17.67
2023-05-21T07:28:38.397Z,16.77
2023-05-21T07:31:06.087Z,13.77
2023-05-21T07:33:39.592Z,12.73
2023-05-21T07:36:07.231Z,15.25
2023-05-21T07:38:34.779Z,16.73
2023-05-21T07:41:02.735Z,13.35
2023-05-21T07:43:31.812Z,15.68
2023-05-21T07:45:59.326Z,13.68
2023-05-21T07:48:28.143Z,14.00
2023-05-21T07:50:59.271Z,14.10
2023-05-21T07:53:27.429Z,15.95
2023-05-21T07:55:55.479Z,14.48
2023-05-21T07:58:26.593Z,16.20
2023-05-21T08:00:54.258Z,11.52
2023-05-21T08:03:21.960Z,13.55
2023-05-21T08:05:50.947Z,14.85
2023-05-21T08:08:20.005Z,13.70
2023-05-21T08:10:48.223Z,12.85
2023-05-21T08:13:17.247Z,12.77
2023-05-21T08:15:46.369Z,12.90
2023-05-21T08:18:14.081Z,11.95
2023-05-21T08:20:43.708Z,11.73
2023-05-21T08:23:11.939Z,10.52
2023-05-21T08:25:46.927Z,11.98
2023-05-21T08:28:15.131Z,15.00
2023-05-21T08:30:42.598Z,13.57
2023-05-21T08:33:10.089Z,15.30
2023-05-21T08:35:37.860Z,16.33
2023-05-21T08:38:14.588Z,14.88
2023-05-21T08:40:49.788Z,19.50
2023-05-21T08:43:17.816Z,17.83
2023-05-21T08:46:00.140Z,11.65
2023-05-21T08:48:32.803Z,14.32
2023-05-21T08:51:02.988Z,14.07
2023-05-21T08:53:34.786Z,13.20
2023-05-21T08:56:04.368Z,15.00
2023-05-21T08:58:47.082Z,13.13
2023-05-21T09:01:19.709Z,19.23
2023-05-21T09:03:51.305Z,14.20
2023-05-21T09:06:19.846Z,10.18
2023-05-21T09:08:59.562Z,13.82
2023-05-21T09:11:37.576Z,15.77
2023-05-21T09:14:06.513Z,8.95
2023-05-21T09:16:48.887Z,19.73
2023-05-21T09:19:21.475Z,8.73
2023-05-21T09:21:52.788Z,10.50
2023-05-21T09:24:25.513Z,17.02
2023-05-21T09:26:53.423Z,10.02
2023-05-21T09:29:21.199Z,11.88
2023-05-21T09:31:50.033Z,13.32
2023-05-21T09:34:17.754Z,9.48
2023-05-21T09:36:48.898Z,18.83
2023-05-21T09:39:32.195Z,10.38
2023-05-21T09:42:03.100Z,10.73
2023-05-21T09:44:30.785Z,11.82
2023-05-21T09:46:59.605Z,16.40
2023-05-21T09:49:28.176Z,10.15
2023-05-21T09:51:58.165Z,13.13
2023-05-21T09:54:31.681Z,21.75
2023-05-21T09:57:01.666Z,12.63
2023-05-21T09:59:41.523Z,9.70
2023-05-21T10:02:20.711Z,14.68
2023-05-21T10:04:50.317Z,16.58
2023-05-21T10:07:25.744Z,11.27
2023-05-21T10:09:57.923Z,12.18
2023-05-21T10:15:04.446Z,11.70
2023-05-21T10:17:32.533Z,10.30
2023-05-21T10:20:01.439Z,12.57
2023-05-21T10:22:29.274Z,20.10
2023-05-21T10:24:58.832Z,9.98
2023-05-21T10:27:28.420Z,10.35
2023-05-21T10:29:59.256Z,9.73
2023-05-21T10:32:28.292Z,9.40
2023-05-21T10:34:58.655Z,9.60
2023-05-21T10:37:28.242Z,9.57
2023-05-21T10:39:56.787Z,21.23
2023-05-21T10:42:33.864Z,12.85
2023-05-21T10:45:32.749Z,11.52
2023-05-21T10:48:09.147Z,9.95
2023-05-21T10:51:13.749Z,9.50
2023-05-21T10:54:03.647Z,9.57
2023-05-21T10:56:44.881Z,12.27
2023-05-21T10:59:22.254Z,12.98
2023-05-21T11:01:55.269Z,14.23
2023-05-21T11:04:26.220Z,8.95
2023-05-21T11:06:53.667Z,15.27
2023-05-21T11:09:21.174Z,7.68
2023-05-21T11:11:54.009Z,10.73
2023-05-21T11:14:38.160Z,12.98
2023-05-21T11:17:35.937Z,9.82
2023-05-21T11:20:14.310Z,10.77
2023-05-21T11:22:41.909Z,10.98
2023-05-21T11:25:09.742Z,16.80
2023-05-21T11:27:37.836Z,10.88
2023-05-21T11:30:08.927Z,11.75
2023-05-21T11:32:41.206Z,10.27
2023-05-21T11:35:08.956Z,7.93
2023-05-21T11:37:37.871Z,10.10
2023-05-21T11:40:26.210Z,8.68
2023-05-21T11:42:55.343Z,9.73
2023-05-21T11:45:28.164Z,14.60
2023-05-21T11:47:56.495Z,10.32
2023-05-21T11:50:25.235Z,11.05
2023-05-21T11:52:52.763Z,11.25
2023-05-21T11:55:25.947Z,10.05
2023-05-21T11:57:55.416Z,10.00
2023-05-21T12:00:23.109Z,11.45
2023-05-21T12:02:52.556Z,9.35
2023-05-21T12:05:20.369Z,8.73
2023-05-21T12:07:50.052Z,11.30
2023-05-21T12:10:21.849Z,16.40
2023-05-21T12:12:55.857Z,9.70
2023-05-21T12:15:26.198Z,12.73
2023-05-21T12:17:55.038Z,12.05
2023-05-21T12:20:23.338Z,10.75
2023-05-21T12:22:50.867Z,9.98
2023-05-21T12:25:20.564Z,9.02
2023-05-21T12:27:51.006Z,12.50
2023-05-21T12:30:18.625Z,9.40
2023-05-21T12:32:46.469Z,12.98
2023-05-21T12:35:24.184Z,7.45
2023-05-21T12:37:52.535Z,11.80
2023-05-21T12:40:20.376Z,12.10
2023-05-21T12:42:48.099Z,9.90
2023-05-21T12:45:18.611Z,10.43
2023-05-21T12:47:50.446Z,15.90
2023-05-21T12:50:21.529Z,10.02
2023-05-21T12:52:49.120Z,14.07
2023-05-21T12:55:17.569Z,12.00
2023-05-21T12:57:45.632Z,10.25
2023-05-21T13:00:14.276Z,11.98
2023-05-21T13:02:44.387Z,9.60
2023-05-21T13:05:21.526Z,8.13
2023-05-21T13:07:51.051Z,9.07
2023-05-21T13:10:18.903Z,8.88
2023-05-21T13:12:46.884Z,9.05
2023-05-21T13:15:14.615Z,9.82
2023-05-21T13:17:42.043Z,9.75
2023-05-21T13:20:20.070Z,19.00
2023-05-21T13:22:50.001Z,10.07
2023-05-21T13:25:22.792Z,9.93
2023-05-21T13:27:51.687Z,12.95
2023-05-21T13:30:19.896Z,11.95
2023-05-21T13:32:48.602Z,14.20
2023-05-21T13:35:16.927Z,12.65
2023-05-21T13:37:45.146Z,10.30
2023-05-21T13:40:15.344Z,7.85
2023-05-21T13:42:47.923Z,11.30
2023-05-21T13:45:18.548Z,15.75
2023-05-21T13:47:47.711Z,10.07
2023-05-21T13:50:16.586Z,10.20
2023-05-21T13:52:44.166Z,10.13
2023-05-21T13:55:11.771Z,6.22
2023-05-21T13:57:40.607Z,19.40
2023-05-21T14:00:14.283Z,8.43
2023-05-21T14:02:43.531Z,13.35
2023-05-21T14:05:12.260Z,17.90
2023-05-21T14:07:40.154Z,11.82
2023-05-21T14:10:08.210Z,14.02
2023-05-21T14:12:35.732Z,13.30
2023-05-21T14:15:03.338Z,11.68
2023-05-21T14:17:30.883Z,11.90
2023-05-21T14:19:58.368Z,9.50
2023-05-21T14:22:25.864Z,12.02
2023-05-21T14:24:53.278Z,14.73
2023-05-21T14:27:20.768Z,11.70
2023-05-21T14:29:48.244Z,13.63
2023-05-21T14:32:17.291Z,9.52
2023-05-21T14:34:44.969Z,12.45
2023-05-21T14:37:12.411Z,8.40
2023-05-21T14:39:39.838Z,8.93
2023-05-21T14:42:07.357Z,7.95
2023-05-21T14:44:34.796Z,12.93
2023-05-21T14:47:02.243Z,10.45
2023-05-21T14:49:29.736Z,14.93
2023-05-21T14:51:57.121Z,9.32
2023-05-21T14:54:24.525Z,13.13
2023-05-21T14:56:51.944Z,10.27
2023-05-21T14:59:19.459Z,7.28
2023-05-21T15:01:46.988Z,7.82
2023-05-21T15:04:14.550Z,16.85
2023-05-21T15:06:42.206Z,11.65
2023-05-21T15:09:09.676Z,10.00
2023-05-21T15:11:37.220Z,11.00
2023-05-21T15:14:04.717Z,10.82
2023-05-21T15:16:32.224Z,7.18
2023-05-21T15:18:59.774Z,9.60
2023-05-21T15:21:28.212Z,8.50
2023-05-21T15:23:55.881Z,14.05
2023-05-21T15:26:25.367Z,12.73
2023-05-21T15:28:53.025Z,14.40
2023-05-21T15:31:20.561Z,9.07
2023-05-21T15:33:48.120Z,16.00
2023-05-21T15:36:15.659Z,8.23
2023-05-21T15:38:43.116Z,8.40
2023-05-21T15:41:10.538Z,13.52
2023-05-21T15:43:38.433Z,7.80
2023-05-21T15:46:05.952Z,10.48
2023-05-21T15:48:33.384Z,9.68
2023-05-21T15:51:00.820Z,12.75
2023-05-21T15:53:28.331Z,7.97
2023-05-21T15:55:56.726Z,15.75
2023-05-21T15:58:24.206Z,8.57
2023-05-21T16:00:51.672Z,10.85
2023-05-21T16:03:19.278Z,9.63
2023-05-21T16:05:46.758Z,8.02
2023-05-21T16:08:14.241Z,8.13
2023-05-21T16:10:41.611Z,12.45
2023-05-21T16:13:09.109Z,13.38
2023-05-21T16:15:36.754Z,8.43
2023-05-21T16:18:04.541Z,20.58
2023-05-21T16:20:32.428Z,8.88
2023-05-21T16:22:59.899Z,8.25
2023-05-21T16:25:27.371Z,6.70
2023-05-21T16:27:54.965Z,11.77
2023-05-21T16:30:22.622Z,9.05
2023-05-21T16:32:50.140Z,7.97
2023-05-21T16:35:17.610Z,6.97
2023-05-21T16:37:45.024Z,9.73
2023-05-21T16:40:14.129Z,11.00
2023-05-21T16:42:41.590Z,16.35
2023-05-21T16:45:09.490Z,11.07
2023-05-21T16:47:36.960Z,8.52
2023-05-21T16:50:05.174Z,11.20
2023-05-21T16:52:32.645Z,7.35
2023-05-21T16:55:00.127Z,13.10
2023-05-21T16:57:27.656Z,8.23
2023-05-21T16:59:55.058Z,10.93
2023-05-21T17:02:22.919Z,11.68
2023-05-21T17:04:50.865Z,10.35
2023-05-21T17:07:18.395Z,15.30
2023-05-21T17:09:45.747Z,21.80
2023-05-21T17:12:13.320Z,14.00
2023-05-21T17:14:40.879Z,11.80
2023-05-21T17:17:08.296Z,15.13
2023-05-21T17:19:35.916Z,10.55
2023-05-21T17:22:03.593Z,9.85
2023-05-21T17:24:31.321Z,11.02
2023-05-21T17:26:58.737Z,32.58
2023-05-21T17:29:26.420Z,16.02
2023-05-21T17:31:54.078Z,9.93
2023-05-21T17:34:24.543Z,20.23
2023-05-21T17:36:53.736Z,15.05
2023-05-21T17:39:21.316Z,19.80
2023-05-21T17:41:48.901Z,12.68
2023-05-21T17:44:17.440Z,27.40
2023-05-21T17:46:50.009Z,15.43
2023-05-21T17:49:17.773Z,27.15
2023-05-21T17:51:45.609Z,16.17
2023-05-21T17:54:13.058Z,26.90
2023-05-21T17:56:40.669Z,19.67
2023-05-21T17:59:09.320Z,10.55
2023-05-21T18:01:38.745Z,12.30
2023-05-21T18:04:12.147Z,18.80
2023-05-21T18:06:40.749Z,14.07
2023-05-21T18:09:08.290Z,16.00
2023-05-21T18:11:35.848Z,34.22
2023-05-21T18:14:04.084Z,24.27
2023-05-21T18:16:31.835Z,11.85
2023-05-21T18:19:02.135Z,15.05
2023-05-21T18:21:29.717Z,19.42
2023-05-21T18:23:57.231Z,14.90
2023-05-21T18:26:25.105Z,17.20
2023-05-21T18:28:52.619Z,14.07
2023-05-21T18:31:20.255Z,16.48
2023-05-21T18:33:47.872Z,22.42
2023-05-21T18:36:15.482Z,20.88
2023-05-21T18:38:43.600Z,12.43
2023-05-21T18:41:11.214Z,13.98
2023-05-21T18:43:38.759Z,13.23
2023-05-21T18:46:06.347Z,15.90
2023-05-21T18:48:33.855Z,16.35
2023-05-21T18:51:01.624Z,18.92
2023-05-21T18:53:29.100Z,20.63
2023-05-21T18:55:56.632Z,20.73
2023-05-21T18:58:24.130Z,17.35
2023-05-21T19:00:51.654Z,12.82
2023-05-21T19:03:19.010Z,14.30
2023-05-21T19:05:46.587Z,14.07
2023-05-21T19:08:14.052Z,17.27
2023-05-21T19:10:41.739Z,13.90
2023-05-21T19:13:09.734Z,12.18
2023-05-21T19:15:37.615Z,11.88
2023-05-21T19:18:05.477Z,12.07
2023-05-21T19:20:32.992Z,15.57
2023-05-21T19:23:01.391Z,11.50
2023-05-21T19:25:28.993Z,12.18
2023-05-21T19:27:56.466Z,15.07
2023-05-21T19:30:24.103Z,12.90
2023-05-21T19:32:51.589Z,13.30
2023-05-21T19:35:20.101Z,13.82
2023-05-21T19:37:47.608Z,11.70
2023-05-21T19:40:17.532Z,14.60
2023-05-21T19:42:45.403Z,16.58
2023-05-21T19:45:13.375Z,16.63
2023-05-21T19:47:41.112Z,13.98
2023-05-21T19:50:10.716Z,13.15
2023-05-21T19:52:39.271Z,10.25
2023-05-21T19:55:08.750Z,12.02
2023-05-21T19:57:37.198Z,17.38
2023-05-21T20:00:05.493Z,13.07
2023-05-21T20:02:41.122Z,13.90
2023-05-21T20:05:09.642Z,15.80
2023-05-21T20:07:37.227Z,12.02
2023-05-21T20:10:05.090Z,12.35
2023-05-21T20:12:32.613Z,14.18
2023-05-21T20:15:00.919Z,11.07
2023-05-21T20:17:28.845Z,14.25
2023-05-21T20:19:57.360Z,13.18
2023-05-21T20:22:24.787Z,10.65
2023-05-21T20:24:52.244Z,12.68
2023-05-21T20:27:20.000Z,11.27
2023-05-21T20:29:47.582Z,10.40
2023-05-21T20:32:15.044Z,13.13
2023-05-21T20:34:54.257Z,7.88
2023-05-21T20:37:26.431Z,11.07
2023-05-21T20:39:58.028Z,10.73
2023-05-21T20:42:28.556Z,10.80
2023-05-21T20:44:58.908Z,11.60
2023-05-21T20:47:30.036Z,9.45
2023-05-21T20:50:00.379Z,10.82
2023-05-21T20:52:27.955Z,10.77
2023-05-21T20:54:59.631Z,15.68
2023-05-21T20:57:28.325Z,11.93
2023-05-21T20:59:56.274Z,11.02
2023-05-21T21:02:23.812Z,13.25
2023-05-21T21:04:51.277Z,11.95
2023-05-21T21:07:19.437Z,9.57
2023-05-21T21:09:48.796Z,12.25
2023-05-21T21:12:26.183Z,11.90
2023-05-21T21:14:54.720Z,11.85
2023-05-21T21:17:22.554Z,13.80
2023-05-21T21:19:50.020Z,14.13
2023-05-21T21:22:18.489Z,12.55
2023-05-21T21:24:46.127Z,12.05
2023-05-21T21:27:13.524Z,11.55
2023-05-21T21:29:40.909Z,11.43
2023-05-21T21:32:08.492Z,12.15
2023-05-21T21:34:36.026Z,12.27
2023-05-21T21:37:03.896Z,14.65
2023-05-21T21:39:31.295Z,12.73
2023-05-21T21:41:58.901Z,16.20
2023-05-21T21:44:26.435Z,13.80
2023-05-21T21:46:53.845Z,14.30
2023-05-21T21:49:21.319Z,10.25
2023-05-21T21:51:49.142Z,10.27
2023-05-21T21:54:16.526Z,12.35
2023-05-21T21:56:44.053Z,12.35
2023-05-21T21:59:11.478Z,16.08
2023-05-21T22:01:38.927Z,10.93
2023-05-21T22:04:06.620Z,17.52
2023-05-21T22:06:34.153Z,11.55
2023-05-21T22:09:01.706Z,13.70
2023-05-21T22:11:29.265Z,12.65
2023-05-21T22:13:57.330Z,11.80
2023-05-21T22:16:25.039Z,13.85
2023-05-21T22:18:58.054Z,16.05
2023-05-21T22:21:29.369Z,10.50
2023-05-21T22:23:56.927Z,13.27
2023-05-21T22:26:24.510Z,13.15
2023-05-21T22:28:51.909Z,12.85
2023-05-21T22:31:19.437Z,13.52
2023-05-21T22:33:47.059Z,13.70
2023-05-21T22:36:14.540Z,14.77
2023-05-21T22:38:43.462Z,16.35
2023-05-21T22:41:11.412Z,13.45
2023-05-21T22:43:38.983Z,13.32
2023-05-21T22:46:06.485Z,15.85
2023-05-21T22:48:34.558Z,12.68
2023-05-21T22:51:02.084Z,13.43
2023-05-21T22:53:29.497Z,14.65
2023-05-21T22:55:56.926Z,13.93
2023-05-21T22:58:24.361Z,12.85
2023-05-21T23:00:51.833Z,13.70
2023-05-21T23:03:19.319Z,10.77
2023-05-21T23:05:46.995Z,12.45
2023-05-21T23:08:14.615Z,11.38
2023-05-21T23:10:42.119Z,15.77
2023-05-21T23:13:09.678Z,10.68
2023-05-21T23:15:38.935Z,10.95
2023-05-21T23:18:08.722Z,15.18
2023-05-21T23:20:36.862Z,13.35
2023-05-21T23:23:04.660Z,11.00
2023-05-21T23:25:33.493Z,12.15
2023-05-21T23:28:00.945Z,10.15
2023-05-21T23:30:28.471Z,18.00
2023-05-21T23:32:55.943Z,12.88
2023-05-21T23:35:23.417Z,12.27
2023-05-21T23:37:50.867Z,17.05
2023-05-21T23:40:18.350Z,15.70
2023-05-21T23:42:45.957Z,12.07
2023-05-21T23:45:13.424Z,13.82
2023-05-21T23:47:41.048Z,10.07
2023-05-21T23:50:09.212Z,11.35
2023-05-21T23:52:36.783Z,12.45
2023-05-21T23:55:04.469Z,15.55
2023-05-21T23:57:31.978Z,13.98
2023-05-21T23:59:59.529Z,12.43
